Ghurian, Afghanistan
Current Conditions -  °F | °C
As of 2:54 AM on Monday 22 Dec 2014 (Local Time) from OAHR Reporting Station
Overcast Overcast  
Wind Chill: 43°   Ceiling: Unl
Heat Index: 43°   Visibility: 6mi
Dew Point: 32°   Wind: 2mph
Humidity: 66%   Direction: 320°NW
Pressure: 29.94"   Gusts: NA
Location:  34.34°N, 61.47°E
Report Text: OAHR 212254Z AUTO 32002KT 9999 VV/// 06/00 Q1014
Loading
Personal Weather Stations






























Interactive Weather Map New forecast layout! Learn more

10-Day Weather Forecast

Advertisements
Track Severe Weather on mobile